Terminal Aerodrome Forecast
Issued by NWS Sterling, VA

Current Version | Previous Version | Text Only | Print | Product List | Glossary On
Versions: 1 2 3 4 5 6 7 8 9 10 11 12 13 14 15 16 17
000
FTUS41 KLWX 222300
TAFMRB
TAF
KMRB 222337Z 2300/2324 31008KT P6SM SCT040
     FM230400 32004KT P6SM SCT035
     FM231000 VRB03KT P6SM FEW140
     FM231900 16004KT P6SM BKN100
     FM232300 13004KT 3SM -SNPL OVC020=

USA.gov is the U.S. government's official web portal to all federal, state and local government web resources and services.